sensor_id;sensor_type;location;lat;lon;timestamp;pressure;altitude;pressure_sealevel;temperature;humidity
54546;BME280;40444;45.184;9.850;2022-09-30T00:00:17;99548.31;;;15.25;100.00
54546;BME280;40444;45.184;9.850;2022-09-30T00:02:47;99538.47;;;15.17;100.00
54546;BME280;40444;45.184;9.850;2022-09-30T00:05:15;99542.84;;;15.18;100.00
54546;BME280;40444;45.184;9.850;2022-09-30T00:07:44;99548.75;;;15.07;100.00
54546;BME280;40444;45.184;9.850;2022-09-30T00:10:12;99558.00;;;15.19;100.00
54546;BME280;40444;45.184;9.850;2022-09-30T00:12:41;99551.84;;;15.25;100.00
54546;BME280;40444;45.184;9.850;2022-09-30T00:15:09;99558.16;;;15.32;100.00
54546;BME280;40444;45.184;9.850;2022-09-30T00:17:37;99554.41;;;15.33;100.00
54546;BME280;40444;45.184;9.850;2022-09-30T00:20:09;99558.38;;;15.37;100.00
54546;BME280;40444;45.184;9.850;2022-09-30T00:22:37;99551.25;;;15.30;100.00
54546;BME280;40444;45.184;9.850;2022-09-30T00:25:07;99559.69;;;15.41;100.00
54546;BME280;40444;45.184;9.850;2022-09-30T00:27:35;99570.47;;;15.41;100.00
54546;BME280;40444;45.184;9.850;2022-09-30T00:30:03;99563.66;;;15.46;100.00
54546;BME280;40444;45.184;9.850;2022-09-30T00:32:32;99564.13;;;15.49;100.00
54546;BME280;40444;45.184;9.850;2022-09-30T00:35:00;99573.47;;;15.53;100.00
54546;BME280;40444;45.184;9.850;2022-09-30T00:37:29;99575.34;;;15.53;100.00
54546;BME280;40444;45.184;9.850;2022-09-30T00:39:57;99573.47;;;15.53;100.00
54546;BME280;40444;45.184;9.850;2022-09-30T00:42:26;99588.44;;;15.56;100.00
54546;BME280;40444;45.184;9.850;2022-09-30T00:45:06;99589.50;;;15.55;100.00
54546;BME280;40444;45.184;9.850;2022-09-30T00:47:56;99594.69;;;15.56;100.00
54546;BME280;40444;45.184;9.850;2022-09-30T00:50:39;99603.00;;;15.55;100.00
54546;BME280;40444;45.184;9.850;2022-09-30T00:53:16;99605.94;;;15.60;100.00
54546;BME280;40444;45.184;9.850;2022-09-30T00:55:50;99607.16;;;15.57;100.00
54546;BME280;40444;45.184;9.850;2022-09-30T00:58:29;99607.81;;;15.59;100.00
54546;BME280;40444;45.184;9.850;2022-09-30T01:01:00;99616.75;;;15.60;100.00
54546;BME280;40444;45.184;9.850;2022-09-30T01:03:35;99616.53;;;15.61;100.00
54546;BME280;40444;45.184;9.850;2022-09-30T01:06:06;99615.34;;;15.64;100.00
54546;BME280;40444;45.184;9.850;2022-09-30T01:08:37;99615.16;;;15.65;100.00
54546;BME280;40444;45.184;9.850;2022-09-30T01:11:07;99624.91;;;15.66;100.00
54546;BME280;40444;45.184;9.850;2022-09-30T01:13:36;99612.28;;;15.67;100.00
54546;BME280;40444;45.184;9.850;2022-09-30T01:22:16;99604.44;;;15.57;100.00
54546;BME280;40444;45.184;9.850;2022-09-30T01:25:17;99613.78;;;15.55;100.00
54546;BME280;40444;45.184;9.850;2022-09-30T01:36:06;99627.47;;;15.53;100.00
54546;BME280;40444;45.184;9.850;2022-09-30T01:41:52;99639.97;;;15.54;100.00
54546;BME280;40444;45.184;9.850;2022-09-30T01:44:32;99640.97;;;15.53;100.00
54546;BME280;40444;45.184;9.850;2022-09-30T01:49:47;99643.28;;;15.56;100.00
54546;BME280;40444;45.184;9.850;2022-09-30T01:52:34;99638.25;;;15.53;100.00
54546;BME280;40444;45.184;9.850;2022-09-30T01:57:59;99633.91;;;15.52;100.00
54546;BME280;40444;45.184;9.850;2022-09-30T02:00:32;99632.03;;;15.53;100.00
54546;BME280;40444;45.184;9.850;2022-09-30T02:03:10;99619.56;;;15.52;100.00
54546;BME280;40444;45.184;9.850;2022-09-30T02:05:45;99625.41;;;15.55;100.00
54546;BME280;40444;45.184;9.850;2022-09-30T02:08:29;99613.97;;;15.53;100.00
54546;BME280;40444;45.184;9.850;2022-09-30T02:11:07;99615.41;;;15.49;100.00
54546;BME280;40444;45.184;9.850;2022-09-30T02:13:52;99617.06;;;15.50;100.00
54546;BME280;40444;45.184;9.850;2022-09-30T02:16:30;99619.94;;;15.49;100.00
54546;BME280;40444;45.184;9.850;2022-09-30T02:22:06;99623.88;;;15.46;100.00
54546;BME280;40444;45.184;9.850;2022-09-30T02:24:37;99633.03;;;15.45;100.00
54546;BME280;40444;45.184;9.850;2022-09-30T02:27:12;99632.56;;;15.41;100.00
54546;BME280;40444;45.184;9.850;2022-09-30T02:29:47;99633.75;;;15.39;100.00
54546;BME280;40444;45.184;9.850;2022-09-30T02:32:23;99638.53;;;15.37;100.00
54546;BME280;40444;45.184;9.850;2022-09-30T02:35:29;99638.53;;;15.37;100.00
54546;BME280;40444;45.184;9.850;2022-09-30T02:38:00;99637.03;;;15.34;100.00
54546;BME280;40444;45.184;9.850;2022-09-30T02:40:35;99638.28;;;15.32;100.00
54546;BME280;40444;45.184;9.850;2022-09-30T02:43:06;99629.06;;;15.26;100.00
54546;BME280;40444;45.184;9.850;2022-09-30T02:45:47;99627.81;;;15.07;100.00
54546;BME280;40444;45.184;9.850;2022-09-30T02:48:29;99629.63;;;15.00;100.00
54546;BME280;40444;45.184;9.850;2022-09-30T02:51:14;99640.09;;;15.10;100.00
54546;BME280;40444;45.184;9.850;2022-09-30T02:53:51;99629.31;;;15.10;100.00
54546;BME280;40444;45.184;9.850;2022-09-30T02:59:17;99636.13;;;14.91;100.00
54546;BME280;40444;45.184;9.850;2022-09-30T03:01:45;99635.75;;;14.94;100.00
54546;BME280;40444;45.184;9.850;2022-09-30T03:04:20;99634.72;;;14.95;100.00
54546;BME280;40444;45.184;9.850;2022-09-30T03:06:49;99630.09;;;14.89;100.00
54546;BME280;40444;45.184;9.850;2022-09-30T03:09:23;99637.72;;;14.85;100.00
54546;BME280;40444;45.184;9.850;2022-09-30T03:12:07;99636.53;;;14.88;100.00
54546;BME280;40444;45.184;9.850;2022-09-30T03:23:43;99617.28;;;14.76;100.00
54546;BME280;40444;45.184;9.850;2022-09-30T03:30:21;99633.22;;;14.56;100.00
54546;BME280;40444;45.184;9.850;2022-09-30T03:41:09;99604.88;;;14.60;100.00
54546;BME280;40444;45.184;9.850;2022-09-30T03:44:11;99610.41;;;14.44;100.00
54546;BME280;40444;45.184;9.850;2022-09-30T03:46:48;99618.94;;;14.33;100.00
54546;BME280;40444;45.184;9.850;2022-09-30T03:49:25;99620.44;;;14.35;100.00
54546;BME280;40444;45.184;9.850;2022-09-30T03:51:55;99621.38;;;14.28;100.00
54546;BME280;40444;45.184;9.850;2022-09-30T03:54:25;99622.88;;;14.30;100.00
54546;BME280;40444;45.184;9.850;2022-09-30T03:56:53;99621.75;;;14.39;100.00
54546;BME280;40444;45.184;9.850;2022-09-30T03:59:26;99648.69;;;14.39;100.00
54546;BME280;40444;45.184;9.850;2022-09-30T04:01:57;99658.81;;;14.37;100.00
54546;BME280;40444;45.184;9.850;2022-09-30T04:04:25;99668.97;;;14.35;100.00
54546;BME280;40444;45.184;9.850;2022-09-30T04:06:53;99682.97;;;14.31;100.00
54546;BME280;40444;45.184;9.850;2022-09-30T04:09:21;99697.00;;;14.26;100.00
54546;BME280;40444;45.184;9.850;2022-09-30T04:11:50;99708.81;;;14.40;100.00
54546;BME280;40444;45.184;9.850;2022-09-30T04:14:18;99716.16;;;14.46;100.00
54546;BME280;40444;45.184;9.850;2022-09-30T04:16:46;99715.28;;;14.54;100.00
54546;BME280;40444;45.184;9.850;2022-09-30T04:19:20;99727.66;;;14.63;100.00
54546;BME280;40444;45.184;9.850;2022-09-30T04:21:52;99723.22;;;14.70;100.00
54546;BME280;40444;45.184;9.850;2022-09-30T04:24:22;99735.78;;;14.78;100.00
54546;BME280;40444;45.184;9.850;2022-09-30T04:26:50;99751.41;;;14.82;100.00
54546;BME280;40444;45.184;9.850;2022-09-30T04:29:20;99750.16;;;14.85;100.00
54546;BME280;40444;45.184;9.850;2022-09-30T04:31:48;99752.03;;;14.84;100.00
54546;BME280;40444;45.184;9.850;2022-09-30T04:34:16;99757.22;;;14.86;100.00
